createdAt,value
2019-02-23T00:00:53.084Z,4.61
2019-02-23T00:01:53.098Z,4.59
2019-02-23T00:02:53.074Z,4.61
2019-02-23T00:03:53.053Z,4.64
2019-02-23T00:04:53.057Z,4.56
2019-02-23T00:05:53.033Z,4.62
2019-02-23T00:06:53.018Z,4.61
2019-02-23T00:07:53.026Z,4.59
2019-02-23T00:08:52.994Z,4.59
2019-02-23T00:09:52.986Z,4.59
2019-02-23T00:10:52.986Z,4.59
2019-02-23T00:11:52.973Z,4.65
2019-02-23T00:12:52.973Z,4.71
2019-02-23T00:13:52.942Z,4.68
2019-02-23T00:14:52.935Z,4.59
2019-02-23T00:15:52.917Z,4.69
2019-02-23T00:16:52.940Z,4.59
2019-02-23T00:17:52.927Z,4.71
2019-02-23T00:18:52.900Z,4.68
2019-02-23T00:19:52.882Z,4.68
2019-02-23T00:20:52.878Z,4.72
2019-02-23T00:21:52.862Z,4.69
2019-02-23T00:22:52.854Z,4.72
2019-02-23T00:23:53.041Z,4.67
2019-02-23T00:26:02.021Z,4.67
2019-02-23T00:27:03.011Z,4.74
2019-02-23T00:28:03.024Z,4.75
2019-02-23T00:29:02.981Z,4.80
2019-02-23T00:30:03.156Z,4.80
2019-02-23T00:31:02.967Z,4.77
2019-02-23T00:32:02.950Z,4.79
2019-02-23T00:33:02.965Z,4.80
2019-02-23T00:34:02.934Z,4.84
2019-02-23T00:35:02.914Z,4.71
2019-02-23T00:36:02.905Z,4.77
2019-02-23T00:37:02.892Z,4.74
2019-02-23T00:38:02.908Z,4.84
2019-02-23T00:39:02.874Z,4.80
2019-02-23T00:40:02.863Z,4.79
2019-02-23T00:41:02.839Z,4.80
2019-02-23T00:42:03.764Z,4.77
2019-02-23T00:43:02.851Z,4.71
2019-02-23T00:44:02.815Z,4.75
2019-02-23T00:45:02.816Z,4.75
2019-02-23T00:46:02.806Z,4.72
2019-02-23T00:47:02.790Z,4.75
2019-02-23T00:48:02.790Z,4.72
2019-02-23T00:49:02.776Z,4.77
2019-02-23T00:50:02.756Z,4.86
2019-02-23T00:51:02.731Z,4.90
2019-02-23T00:52:02.738Z,4.77
2019-02-23T00:53:02.734Z,4.83
2019-02-23T00:54:02.723Z,4.84
2019-02-23T00:55:02.699Z,4.87
2019-02-23T00:56:02.680Z,4.87
2019-02-23T00:57:02.688Z,4.86
2019-02-23T00:58:02.702Z,4.88
2019-02-23T00:59:02.648Z,4.87
2019-02-23T01:00:02.669Z,4.87
2019-02-23T01:01:02.635Z,4.88
2019-02-23T01:02:02.623Z,4.94
2019-02-23T01:03:02.625Z,4.88
2019-02-23T01:04:02.598Z,4.86
2019-02-23T01:05:02.578Z,4.88
2019-02-23T01:06:02.577Z,4.90
2019-02-23T01:07:02.566Z,4.94
2019-02-23T01:08:02.571Z,4.90
2019-02-23T01:09:02.552Z,4.96
2019-02-23T01:10:02.526Z,4.93
2019-02-23T01:11:02.514Z,4.94
2019-02-23T01:12:02.530Z,4.87
2019-02-23T01:13:02.518Z,4.86
2019-02-23T01:14:02.489Z,4.93
2019-02-23T01:15:02.470Z,4.86
2019-02-23T01:16:02.453Z,4.88
2019-02-23T01:17:02.445Z,4.88
2019-02-23T01:18:02.459Z,4.90
2019-02-23T01:19:02.424Z,4.84
2019-02-23T01:20:02.417Z,4.90
2019-02-23T01:21:02.413Z,4.90
2019-02-23T01:22:02.400Z,4.84
2019-02-23T01:23:02.405Z,4.87
2019-02-23T01:24:02.366Z,4.90
2019-02-23T01:25:02.362Z,4.84
2019-02-23T01:26:02.372Z,4.77
2019-02-23T01:27:02.338Z,4.80
2019-02-23T01:28:02.340Z,4.75
2019-02-23T01:29:02.315Z,4.80
2019-02-23T01:30:02.342Z,4.77
2019-02-23T01:31:02.301Z,4.80
2019-02-23T01:32:02.292Z,4.80
2019-02-23T01:33:02.289Z,4.75
2019-02-23T01:34:02.259Z,4.74
2019-02-23T01:35:02.255Z,4.72
2019-02-23T01:36:02.238Z,4.77
2019-02-23T01:37:02.261Z,4.69
2019-02-23T01:38:02.243Z,4.69
2019-02-23T01:39:02.211Z,4.67
2019-02-23T01:40:02.193Z,4.71
2019-02-23T01:41:02.186Z,4.71
2019-02-23T01:42:02.166Z,4.65
2019-02-23T01:43:02.194Z,4.54
2019-02-23T01:44:02.155Z,4.59
2019-02-23T01:45:02.146Z,4.64
2019-02-23T01:46:02.119Z,4.57
2019-02-23T01:47:02.115Z,4.62
2019-02-23T01:48:02.142Z,4.61
2019-02-23T01:49:02.107Z,4.65
2019-02-23T01:50:02.088Z,4.56
2019-02-23T01:51:02.068Z,4.54
2019-02-23T01:52:02.055Z,4.59
2019-02-23T01:53:02.125Z,4.57
2019-02-23T01:54:02.049Z,4.53
2019-02-23T01:55:02.036Z,4.56
2019-02-23T01:56:02.012Z,4.46
2019-02-23T01:57:02.000Z,4.49
2019-02-23T01:58:02.032Z,4.35
2019-02-23T01:59:02.012Z,4.34
2019-02-23T02:00:03.001Z,4.38
2019-02-23T02:01:01.964Z,4.39
2019-02-23T02:02:01.960Z,4.34
2019-02-23T02:03:01.950Z,4.34
2019-02-23T02:04:01.954Z,4.36
2019-02-23T02:05:01.923Z,4.26
2019-02-23T02:06:01.911Z,4.24
2019-02-23T02:07:01.901Z,4.28
2019-02-23T02:08:01.887Z,4.24
2019-02-23T02:09:01.897Z,4.14
2019-02-23T02:10:01.867Z,4.18
2019-02-23T02:11:01.886Z,4.17
2019-02-23T02:12:01.847Z,4.14
2019-02-23T02:13:01.838Z,4.10
2019-02-23T02:14:01.852Z,4.06
2019-02-23T02:15:01.811Z,4.00
2019-02-23T02:16:01.790Z,4.06
2019-02-23T02:17:01.788Z,4.04
2019-02-23T02:18:01.785Z,3.96
2019-02-23T02:19:01.801Z,3.99
2019-02-23T02:20:10.522Z,3.98
2019-02-23T02:21:01.751Z,3.99
2019-02-23T02:22:01.739Z,3.96
2019-02-23T02:23:01.723Z,3.93
2019-02-23T02:24:01.734Z,3.81
2019-02-23T02:25:01.731Z,3.89
2019-02-23T02:27:10.896Z,3.80
2019-02-23T02:28:11.921Z,3.75
2019-02-23T02:29:11.905Z,3.78
2019-02-23T02:30:11.871Z,3.71
2019-02-23T02:31:11.847Z,3.63
2019-02-23T02:32:11.840Z,3.70
2019-02-23T02:33:11.832Z,3.68
2019-02-23T02:34:11.829Z,3.56
2019-02-23T02:35:11.811Z,3.57
2019-02-23T02:36:11.800Z,3.50
2019-02-23T02:37:11.783Z,3.59
2019-02-23T02:38:11.859Z,3.53
2019-02-23T02:39:11.792Z,3.52
2019-02-23T02:40:11.774Z,3.44
2019-02-23T02:41:11.736Z,3.42
2019-02-23T02:42:11.739Z,3.41
2019-02-23T02:43:11.725Z,3.46
2019-02-23T02:44:11.731Z,3.33
2019-02-23T02:45:11.709Z,3.37
2019-02-23T02:46:11.701Z,3.37
2019-02-23T02:47:11.676Z,3.45
2019-02-23T02:48:11.676Z,3.31
2019-02-23T02:49:11.679Z,3.30
2019-02-23T02:50:23.321Z,3.28
2019-02-23T02:51:11.633Z,3.26
2019-02-23T02:52:11.618Z,3.28
2019-02-23T02:53:11.611Z,3.28
2019-02-23T02:54:11.623Z,3.26
2019-02-23T02:55:11.634Z,3.25
2019-02-23T02:56:11.602Z,3.20
2019-02-23T02:57:11.592Z,3.22
2019-02-23T02:58:11.579Z,3.15
2019-02-23T02:59:11.602Z,3.13
2019-02-23T03:00:11.638Z,3.10
2019-02-23T03:01:12.133Z,3.04
2019-02-23T03:02:11.605Z,3.05
2019-02-23T03:03:11.563Z,3.04
2019-02-23T03:04:11.587Z,3.07
2019-02-23T03:05:12.141Z,3.07
2019-02-23T03:06:11.546Z,3.07
2019-02-23T03:07:11.693Z,3.04
2019-02-23T03:08:11.444Z,3.02
2019-02-23T03:09:11.460Z,2.99
2019-02-23T03:10:11.430Z,3.05
2019-02-23T03:11:11.407Z,3.02
2019-02-23T03:12:11.408Z,2.97
2019-02-23T03:13:11.390Z,2.94
2019-02-23T03:14:11.403Z,2.87
2019-02-23T03:15:11.370Z,2.92
2019-02-23T03:16:11.366Z,2.92
2019-02-23T03:17:11.359Z,2.87
2019-02-23T03:18:11.329Z,2.92
2019-02-23T03:19:11.353Z,2.89
2019-02-23T03:20:11.325Z,2.89
2019-02-23T03:21:11.305Z,2.83
2019-02-23T03:22:11.300Z,2.86
2019-02-23T03:23:11.284Z,2.89
2019-02-23T03:24:11.307Z,2.77
2019-02-23T03:25:11.261Z,2.89
2019-02-23T03:26:11.317Z,2.79
2019-02-23T03:27:11.243Z,2.80
2019-02-23T03:28:11.231Z,2.87
2019-02-23T03:29:11.245Z,2.80
2019-02-23T03:30:11.250Z,2.81
2019-02-23T03:31:11.204Z,2.79
2019-02-23T03:32:11.192Z,2.83
2019-02-23T03:33:11.184Z,2.86
2019-02-23T03:34:11.203Z,2.81
2019-02-23T03:35:11.644Z,2.80
2019-02-23T03:36:11.157Z,2.77
2019-02-23T03:37:11.149Z,2.73
2019-02-23T03:38:11.128Z,2.66
2019-02-23T03:39:11.137Z,2.65
2019-02-23T03:40:11.121Z,2.73
2019-02-23T03:41:11.094Z,2.63
2019-02-23T03:42:11.096Z,2.61
2019-02-23T03:43:11.072Z,2.63
2019-02-23T03:44:11.090Z,2.61
2019-02-23T03:45:11.038Z,2.63
2019-02-23T03:46:11.042Z,2.62
2019-02-23T03:47:11.020Z,2.61
2019-02-23T03:48:11.007Z,2.58
2019-02-23T03:49:11.002Z,2.61
2019-02-23T03:50:10.998Z,2.55
2019-02-23T03:51:10.976Z,2.48
2019-02-23T03:52:10.968Z,2.50
2019-02-23T03:53:10.960Z,2.51
2019-02-23T03:54:10.953Z,2.44
2019-02-23T03:55:10.978Z,2.37
2019-02-23T03:56:10.922Z,2.43
2019-02-23T03:57:10.914Z,2.44
2019-02-23T03:58:10.910Z,2.47
2019-02-23T03:59:10.897Z,2.41
2019-02-23T04:00:10.921Z,2.38
2019-02-23T04:01:10.881Z,2.40
2019-02-23T04:02:10.863Z,2.41
2019-02-23T04:03:10.855Z,2.45
2019-02-23T04:04:10.848Z,2.44
2019-02-23T04:05:10.852Z,2.43
2019-02-23T04:06:10.813Z,2.40
2019-02-23T04:07:10.799Z,2.36
2019-02-23T04:08:10.797Z,2.41
2019-02-23T04:09:10.787Z,2.32
2019-02-23T04:10:10.794Z,2.33
2019-02-23T04:11:10.762Z,2.26
2019-02-23T04:12:10.773Z,2.33
2019-02-23T04:13:10.739Z,2.33
2019-02-23T04:14:10.753Z,2.30
2019-02-23T04:15:10.744Z,2.33
2019-02-23T04:16:10.708Z,2.32
2019-02-23T04:17:10.701Z,2.25
2019-02-23T04:18:10.699Z,2.37
2019-02-23T04:19:10.697Z,2.33
2019-02-23T04:20:10.680Z,2.33
2019-02-23T04:21:10.656Z,2.37
2019-02-23T04:22:10.648Z,2.36
2019-02-23T04:23:10.635Z,2.30
2019-02-23T04:24:10.625Z,2.20
2019-02-23T04:25:10.648Z,2.20
2019-02-23T04:26:10.611Z,2.12
2019-02-23T04:28:19.786Z,2.18
2019-02-23T04:29:20.762Z,2.14
2019-02-23T04:30:20.788Z,2.19
2019-02-23T04:31:20.759Z,2.12
2019-02-23T04:32:20.741Z,2.18
2019-02-23T04:33:20.725Z,2.15
2019-02-23T04:34:20.719Z,2.11
2019-02-23T04:35:20.727Z,2.08
2019-02-23T04:36:20.700Z,2.15
2019-02-23T04:37:20.685Z,2.12
2019-02-23T04:38:20.682Z,2.08
2019-02-23T04:39:20.668Z,2.08
2019-02-23T04:40:20.676Z,2.09
2019-02-23T04:41:20.644Z,2.08
2019-02-23T04:42:20.637Z,2.12
2019-02-23T04:43:20.624Z,2.07
2019-02-23T04:44:20.611Z,2.02
2019-02-23T04:45:20.617Z,2.05
2019-02-23T04:46:20.596Z,2.08
2019-02-23T04:47:20.580Z,2.01
2019-02-23T04:48:20.568Z,1.93
2019-02-23T04:49:20.566Z,1.92
2019-02-23T04:50:20.573Z,1.90
2019-02-23T04:51:20.547Z,1.92
2019-02-23T04:52:20.530Z,1.95
2019-02-23T04:53:20.516Z,1.90
2019-02-23T04:54:20.500Z,1.86
2019-02-23T04:55:20.514Z,1.85
2019-02-23T04:56:20.481Z,1.81
2019-02-23T04:57:20.477Z,1.82
2019-02-23T04:58:20.472Z,1.72
2019-02-23T04:59:21.043Z,1.77
2019-02-23T05:00:20.462Z,1.75
2019-02-23T05:01:20.442Z,1.81
2019-02-23T05:02:20.421Z,1.79
2019-02-23T05:03:20.401Z,1.79
2019-02-23T05:04:20.396Z,1.71
2019-02-23T05:05:20.416Z,1.67
2019-02-23T05:06:20.383Z,1.64
2019-02-23T05:07:20.385Z,1.72
2019-02-23T05:08:20.360Z,1.70
2019-02-23T05:09:20.337Z,1.57
2019-02-23T05:10:20.351Z,1.61
2019-02-23T05:11:20.327Z,1.61
2019-02-23T05:12:20.319Z,1.61
2019-02-23T05:13:20.305Z,1.60
2019-02-23T05:14:20.296Z,1.60
2019-02-23T05:15:20.295Z,1.60
2019-02-23T05:16:20.274Z,1.63
2019-02-23T05:17:20.253Z,1.60
2019-02-23T05:18:20.256Z,1.56
2019-02-23T05:19:20.239Z,1.60
2019-02-23T05:20:20.257Z,1.56
2019-02-23T05:21:26.218Z,1.60
2019-02-23T05:22:20.202Z,1.64
2019-02-23T05:23:20.194Z,1.61
2019-02-23T05:24:20.192Z,1.63
2019-02-23T05:25:20.189Z,1.49
2019-02-23T05:26:20.177Z,1.63
2019-02-23T05:27:20.145Z,1.56
2019-02-23T05:28:20.145Z,1.53
2019-02-23T05:29:20.136Z,1.50
2019-02-23T05:30:20.147Z,1.50
2019-02-23T05:31:22.190Z,1.54
2019-02-23T05:32:20.093Z,1.50
2019-02-23T05:33:20.114Z,1.47
2019-02-23T05:34:20.081Z,1.52
2019-02-23T05:35:20.090Z,1.39
2019-02-23T05:36:20.073Z,1.46
2019-02-23T05:37:20.056Z,1.47
2019-02-23T05:38:20.038Z,1.39
2019-02-23T05:39:20.032Z,1.47
2019-02-23T05:40:20.008Z,1.52
2019-02-23T05:41:20.010Z,1.54
2019-02-23T05:42:20.002Z,1.52
2019-02-23T05:43:19.998Z,1.50
2019-02-23T05:44:19.978Z,1.47
2019-02-23T05:45:19.976Z,1.47
2019-02-23T05:46:19.977Z,1.50
2019-02-23T05:47:19.946Z,1.35
2019-02-23T05:48:19.922Z,1.39
2019-02-23T05:49:19.925Z,1.34
2019-02-23T05:50:19.912Z,1.35
2019-02-23T05:51:19.924Z,1.39
2019-02-23T05:52:19.899Z,1.39
2019-02-23T05:53:19.877Z,1.32
2019-02-23T05:54:19.865Z,1.36
2019-02-23T05:55:19.872Z,1.35
2019-02-23T05:56:19.866Z,1.35
2019-02-23T05:57:19.832Z,1.36
2019-02-23T05:58:19.818Z,1.34
2019-02-23T05:59:19.815Z,1.25
2019-02-23T06:00:19.821Z,1.28
2019-02-23T06:01:19.799Z,1.31
2019-02-23T06:02:19.815Z,1.31
2019-02-23T06:03:19.762Z,1.31
2019-02-23T06:04:19.765Z,1.24
2019-02-23T06:05:19.791Z,1.31
2019-02-23T06:06:19.743Z,1.28
2019-02-23T06:07:19.755Z,1.21
2019-02-23T06:08:19.734Z,1.25
2019-02-23T06:09:19.708Z,1.21
2019-02-23T06:10:19.699Z,1.24
2019-02-23T06:11:19.693Z,1.21
2019-02-23T06:12:19.699Z,1.24
2019-02-23T06:13:19.671Z,1.18
2019-02-23T06:14:19.683Z,1.24
2019-02-23T06:15:19.638Z,1.18
2019-02-23T06:16:19.629Z,1.17
2019-02-23T06:17:19.641Z,1.20
2019-02-23T06:18:19.615Z,1.18
2019-02-23T06:19:19.611Z,1.13
2019-02-23T06:20:19.588Z,1.17
2019-02-23T06:21:19.595Z,1.18
2019-02-23T06:22:19.595Z,1.17
2019-02-23T06:23:19.568Z,1.08
2019-02-23T06:24:19.549Z,1.11
2019-02-23T06:25:19.538Z,1.06
2019-02-23T06:26:19.547Z,1.06
2019-02-23T06:27:19.528Z,1.10
2019-02-23T06:29:29.132Z,1.11
2019-02-23T06:30:30.033Z,1.08
2019-02-23T06:31:30.021Z,1.11
2019-02-23T06:32:30.034Z,1.04
2019-02-23T06:33:30.015Z,1.06
2019-02-23T06:34:29.972Z,1.10
2019-02-23T06:35:29.980Z,1.11
2019-02-23T06:36:29.957Z,1.04
2019-02-23T06:37:29.967Z,1.02
2019-02-23T06:38:29.937Z,1.06
2019-02-23T06:39:29.924Z,1.04
2019-02-23T06:40:29.922Z,1.00
2019-02-23T06:41:29.916Z,1.07
2019-02-23T06:42:29.923Z,1.06
2019-02-23T06:43:29.901Z,1.10
2019-02-23T06:44:29.874Z,1.02
2019-02-23T06:45:29.867Z,1.04
2019-02-23T06:46:29.861Z,1.04
2019-02-23T06:47:29.876Z,1.00
2019-02-23T06:48:29.834Z,1.08
2019-02-23T06:49:29.828Z,1.08
2019-02-23T06:50:29.819Z,1.14
2019-02-23T06:51:29.808Z,1.06
2019-02-23T06:52:29.818Z,1.06
2019-02-23T06:53:29.787Z,1.10
2019-02-23T06:54:29.777Z,1.11
2019-02-23T06:55:29.770Z,1.14
2019-02-23T06:56:29.749Z,1.13
2019-02-23T06:57:29.748Z,1.21
2019-02-23T06:58:29.729Z,1.17
2019-02-23T06:59:29.720Z,1.16
2019-02-23T07:00:29.697Z,1.18
2019-02-23T07:01:29.698Z,1.28
2019-02-23T07:02:29.714Z,1.28
2019-02-23T07:03:29.685Z,1.18
2019-02-23T07:04:29.663Z,1.24
2019-02-23T07:05:29.653Z,1.20
2019-02-23T07:06:30.542Z,1.21
2019-02-23T07:07:29.659Z,1.34
2019-02-23T07:08:29.623Z,1.25
2019-02-23T07:09:29.624Z,1.28
2019-02-23T07:10:29.595Z,1.38
2019-02-23T07:11:29.582Z,1.35
2019-02-23T07:12:29.659Z,1.34
2019-02-23T07:13:29.560Z,1.39
2019-02-23T07:14:29.542Z,1.36
2019-02-23T07:15:29.548Z,1.42
2019-02-23T07:16:29.530Z,1.49
2019-02-23T07:17:29.539Z,1.38
2019-02-23T07:18:29.513Z,1.46
2019-02-23T07:19:29.498Z,1.50
2019-02-23T07:20:29.482Z,1.47
2019-02-23T07:21:29.476Z,1.52
2019-02-23T07:22:29.490Z,1.46
2019-02-23T07:23:29.466Z,1.50
2019-02-23T07:24:29.450Z,1.50
2019-02-23T07:25:29.432Z,1.60
2019-02-23T07:26:29.428Z,1.60
2019-02-23T07:27:29.437Z,1.57
2019-02-23T07:28:29.408Z,1.64
2019-02-23T07:29:29.384Z,1.65
2019-02-23T07:30:29.373Z,1.71
2019-02-23T07:31:29.375Z,1.71
2019-02-23T07:32:29.368Z,1.64
2019-02-23T07:33:32.730Z,1.79
2019-02-23T07:34:29.347Z,1.75
2019-02-23T07:35:29.320Z,1.83
2019-02-23T07:36:29.319Z,1.72
2019-02-23T07:37:29.329Z,1.83
2019-02-23T07:38:29.296Z,1.83
2019-02-23T07:39:29.285Z,1.82
2019-02-23T07:40:29.295Z,1.83
2019-02-23T07:41:29.254Z,1.88
2019-02-23T07:42:29.269Z,1.85
2019-02-23T07:43:29.239Z,2.01
2019-02-23T07:44:29.216Z,1.93
2019-02-23T07:45:29.230Z,1.95
2019-02-23T07:46:29.224Z,1.95
2019-02-23T07:47:29.215Z,1.95
2019-02-23T07:48:29.188Z,1.98
2019-02-23T07:49:29.174Z,2.08
2019-02-23T07:50:29.161Z,2.08
2019-02-23T07:51:29.160Z,2.07
2019-02-23T07:52:29.162Z,2.19
2019-02-23T07:53:29.131Z,2.15
2019-02-23T07:54:29.121Z,2.12
2019-02-23T07:55:29.132Z,2.12
2019-02-23T07:56:29.105Z,2.25
2019-02-23T07:57:29.120Z,2.19
2019-02-23T07:58:29.074Z,2.15
2019-02-23T07:59:29.073Z,2.20
2019-02-23T08:00:29.049Z,2.29
2019-02-23T08:01:29.049Z,2.26
2019-02-23T08:02:29.034Z,2.30
2019-02-23T08:03:29.022Z,2.37
2019-02-23T08:04:29.010Z,2.33
2019-02-23T08:05:29.003Z,2.30
2019-02-23T08:06:28.982Z,2.41
2019-02-23T08:07:28.971Z,2.38
2019-02-23T08:08:29.012Z,2.37
2019-02-23T08:09:28.962Z,2.44
2019-02-23T08:10:28.937Z,2.47
2019-02-23T08:11:28.925Z,2.45
2019-02-23T08:12:28.927Z,2.43
2019-02-23T08:13:28.929Z,2.51
2019-02-23T08:14:28.911Z,2.50
2019-02-23T08:15:28.888Z,2.58
2019-02-23T08:16:28.896Z,2.61
2019-02-23T08:17:28.874Z,2.62
2019-02-23T08:18:28.877Z,2.69
2019-02-23T08:19:28.861Z,2.77
2019-02-23T08:20:28.841Z,2.68
2019-02-23T08:21:28.826Z,2.69
2019-02-23T08:22:37.132Z,2.74
2019-02-23T08:23:28.836Z,2.80
2019-02-23T08:24:28.798Z,2.74
2019-02-23T08:25:28.788Z,2.81
2019-02-23T08:26:28.774Z,2.84
2019-02-23T08:27:28.763Z,2.77
2019-02-23T08:28:28.782Z,2.84
2019-02-23T08:30:37.937Z,2.90
2019-02-23T08:31:38.923Z,2.98
2019-02-23T08:32:38.915Z,2.98
2019-02-23T08:33:38.929Z,2.99
2019-02-23T08:34:38.890Z,3.10
2019-02-23T08:35:38.879Z,3.12
2019-02-23T08:36:38.864Z,3.08
2019-02-23T08:37:38.850Z,3.19
2019-02-23T08:38:38.863Z,3.20
2019-02-23T08:39:38.833Z,3.22
2019-02-23T08:40:38.828Z,3.30
2019-02-23T08:41:38.807Z,3.30
2019-02-23T08:42:38.809Z,3.26
2019-02-23T08:43:38.803Z,3.25
2019-02-23T08:44:38.775Z,3.33
2019-02-23T08:45:38.757Z,3.42
2019-02-23T08:46:38.747Z,3.33
2019-02-23T08:47:38.742Z,3.33
2019-02-23T08:48:38.767Z,3.39
2019-02-23T08:49:38.723Z,3.49
2019-02-23T08:50:38.717Z,3.54
2019-02-23T08:51:38.703Z,3.57
2019-02-23T08:52:48.714Z,3.52
2019-02-23T08:53:38.706Z,3.62
2019-02-23T08:54:38.677Z,3.64
2019-02-23T08:55:38.662Z,3.62
2019-02-23T08:56:38.651Z,3.60
2019-02-23T08:57:38.649Z,3.63
2019-02-23T08:58:38.639Z,3.70
2019-02-23T08:59:38.633Z,3.78
2019-02-23T09:00:38.627Z,3.78
2019-02-23T09:01:38.585Z,3.80
2019-02-23T09:02:38.575Z,3.71
2019-02-23T09:03:38.587Z,3.78
2019-02-23T09:04:38.562Z,3.78
2019-02-23T09:05:38.549Z,3.77
2019-02-23T09:06:38.559Z,3.63
2019-02-23T09:07:38.550Z,3.71
2019-02-23T09:08:38.542Z,3.81
2019-02-23T09:09:38.516Z,3.84
2019-02-23T09:10:38.496Z,3.80
2019-02-23T09:11:38.485Z,3.72
2019-02-23T09:12:38.476Z,3.80
2019-02-23T09:13:38.481Z,3.92
2019-02-23T09:14:38.455Z,3.93
2019-02-23T09:15:38.441Z,3.92
2019-02-23T09:16:38.426Z,4.00
2019-02-23T09:17:38.416Z,3.99
2019-02-23T09:18:38.434Z,3.99
2019-02-23T09:19:38.401Z,3.99
2019-02-23T09:20:38.383Z,4.13
2019-02-23T09:21:38.395Z,4.08
2019-02-23T09:22:38.441Z,4.16
2019-02-23T09:23:38.391Z,4.16
2019-02-23T09:24:38.337Z,4.11
2019-02-23T09:25:38.330Z,4.29
2019-02-23T09:26:38.309Z,4.20
2019-02-23T09:27:38.323Z,4.29
2019-02-23T09:28:38.342Z,4.31
2019-02-23T09:29:38.310Z,4.38
2019-02-23T09:30:38.285Z,4.53
2019-02-23T09:31:38.262Z,4.67
2019-02-23T09:32:38.256Z,4.79
2019-02-23T09:33:38.272Z,4.91
2019-02-23T09:34:38.234Z,5.01
2019-02-23T09:35:38.211Z,4.87
2019-02-23T09:36:38.221Z,4.91
2019-02-23T09:37:38.189Z,4.75
2019-02-23T09:38:38.206Z,4.75
2019-02-23T09:39:38.176Z,4.93
2019-02-23T09:40:38.168Z,5.14
2019-02-23T09:41:38.161Z,5.11
2019-02-23T09:42:38.149Z,5.14
2019-02-23T09:43:38.152Z,5.19
2019-02-23T09:44:38.126Z,5.38
2019-02-23T09:45:38.100Z,5.44
2019-02-23T09:46:38.095Z,5.40
2019-02-23T09:47:38.084Z,5.44
2019-02-23T09:48:38.119Z,5.59
2019-02-23T09:49:38.071Z,5.62
2019-02-23T09:50:38.067Z,5.45
2019-02-23T09:51:38.042Z,5.24
2019-02-23T09:52:38.041Z,5.24
2019-02-23T09:53:38.017Z,5.45
2019-02-23T09:54:38.021Z,5.38
2019-02-23T09:55:38.000Z,5.30
2019-02-23T09:56:37.989Z,5.42
2019-02-23T09:57:37.998Z,5.40
2019-02-23T09:58:37.970Z,5.49
2019-02-23T09:59:40.238Z,5.55
2019-02-23T10:00:37.949Z,5.63
2019-02-23T10:01:37.951Z,5.55
2019-02-23T10:02:37.925Z,5.47
2019-02-23T10:03:37.917Z,5.60
2019-02-23T10:04:37.896Z,5.62
2019-02-23T10:05:38.323Z,5.74
2019-02-23T10:06:37.884Z,5.74
2019-02-23T10:07:37.875Z,5.66
2019-02-23T10:08:37.859Z,5.49
2019-02-23T10:09:37.863Z,5.40
2019-02-23T10:10:37.856Z,5.49
2019-02-23T10:11:37.840Z,5.48
2019-02-23T10:12:37.813Z,5.74
2019-02-23T10:13:37.805Z,5.75
2019-02-23T10:14:37.787Z,5.84
2019-02-23T10:15:37.811Z,5.98
2019-02-23T10:16:37.785Z,6.16
2019-02-23T10:17:37.752Z,6.21
2019-02-23T10:18:37.751Z,6.24
2019-02-23T10:19:37.743Z,6.39
2019-02-23T10:20:37.762Z,6.40
2019-02-23T10:21:37.733Z,6.27
2019-02-23T10:22:39.663Z,6.03
2019-02-23T10:23:37.714Z,6.01
2019-02-23T10:24:37.685Z,5.93
2019-02-23T10:25:37.688Z,5.92
2019-02-23T10:26:37.665Z,5.99
2019-02-23T10:27:37.657Z,6.08
2019-02-23T10:28:37.645Z,6.36
2019-02-23T10:29:37.628Z,6.35
2019-02-23T10:31:46.841Z,6.39
2019-02-23T10:32:47.799Z,6.38
2019-02-23T10:33:48.030Z,6.51
2019-02-23T10:34:47.776Z,6.68
2019-02-23T10:35:47.783Z,6.69
2019-02-23T10:36:47.781Z,6.64
2019-02-23T10:37:47.752Z,6.72
2019-02-23T10:38:47.727Z,6.78
2019-02-23T10:39:47.722Z,6.90
2019-02-23T10:40:47.712Z,7.00
2019-02-23T10:41:47.720Z,7.07
2019-02-23T10:42:47.698Z,7.19
2019-02-23T10:43:47.692Z,7.08
2019-02-23T10:44:47.662Z,7.18
2019-02-23T10:45:47.658Z,7.16
2019-02-23T10:46:47.675Z,7.26
2019-02-23T10:47:50.176Z,7.36
2019-02-23T10:48:47.623Z,7.29
2019-02-23T10:49:47.617Z,6.97
2019-02-23T10:50:47.619Z,6.83
2019-02-23T10:51:47.626Z,6.71
2019-02-23T10:52:47.590Z,6.64
2019-02-23T10:53:47.578Z,6.64
2019-02-23T10:54:47.571Z,6.78
2019-02-23T10:55:47.549Z,6.87
2019-02-23T10:56:47.554Z,7.04
2019-02-23T10:57:47.526Z,7.09
2019-02-23T10:58:47.514Z,7.11
2019-02-23T10:59:47.508Z,7.18
2019-02-23T11:00:47.491Z,7.32
2019-02-23T11:01:47.499Z,7.50
2019-02-23T11:02:47.478Z,7.62
2019-02-23T11:03:47.458Z,7.57
2019-02-23T11:04:47.447Z,7.54
2019-02-23T11:05:47.446Z,7.51
2019-02-23T11:06:47.452Z,7.58
2019-02-23T11:07:47.416Z,7.73
2019-02-23T11:08:47.405Z,7.73
2019-02-23T11:09:47.399Z,7.77
2019-02-23T11:10:47.390Z,7.76
2019-02-23T11:11:48.477Z,7.84
2019-02-23T11:12:47.363Z,7.88
2019-02-23T11:13:47.350Z,7.84
2019-02-23T11:14:47.341Z,7.57
2019-02-23T11:15:47.339Z,7.55
2019-02-23T11:16:47.335Z,7.50
2019-02-23T11:17:47.324Z,7.44
2019-02-23T11:18:47.295Z,7.51
2019-02-23T11:19:47.291Z,7.48
2019-02-23T11:20:47.286Z,7.54
2019-02-23T11:21:47.300Z,7.69
2019-02-23T11:22:47.271Z,7.47
2019-02-23T11:23:47.438Z,7.47
2019-02-23T11:24:47.241Z,7.36
2019-02-23T11:25:47.218Z,7.26
2019-02-23T11:26:47.247Z,7.30
2019-02-23T11:27:47.201Z,7.32
2019-02-23T11:28:47.199Z,7.37
2019-02-23T11:29:47.189Z,7.37
2019-02-23T11:30:47.173Z,7.47
2019-02-23T11:31:47.185Z,7.58
2019-02-23T11:32:47.147Z,7.62
2019-02-23T11:33:47.144Z,7.88
2019-02-23T11:34:47.144Z,8.03
2019-02-23T11:35:47.118Z,7.99
2019-02-23T11:36:47.130Z,8.03
2019-02-23T11:37:47.103Z,8.07
2019-02-23T11:38:47.082Z,8.12
2019-02-23T11:39:47.079Z,8.21
2019-02-23T11:40:47.056Z,8.12
2019-02-23T11:41:47.083Z,8.02
2019-02-23T11:42:47.041Z,7.89
2019-02-23T11:43:47.057Z,8.06
2019-02-23T11:44:47.012Z,8.03
2019-02-23T11:45:47.015Z,8.00
2019-02-23T11:46:59.793Z,8.12
2019-02-23T11:47:46.989Z,8.12
2019-02-23T11:48:46.973Z,8.29
2019-02-23T11:49:46.962Z,8.31
2019-02-23T11:50:46.969Z,8.43
2019-02-23T11:51:46.948Z,8.40
2019-02-23T11:52:47.018Z,8.20
2019-02-23T11:53:54.607Z,8.13
2019-02-23T11:54:46.904Z,8.00
2019-02-23T11:55:46.906Z,8.00
2019-02-23T11:56:46.895Z,8.07
2019-02-23T11:57:46.906Z,8.07
2019-02-23T11:58:46.868Z,8.25
2019-02-23T11:59:46.866Z,8.34
2019-02-23T12:00:46.849Z,8.40
2019-02-23T12:01:46.841Z,8.42
2019-02-23T12:02:52.571Z,8.46
2019-02-23T12:03:46.825Z,8.52
2019-02-23T12:04:46.805Z,8.70
2019-02-23T12:05:46.814Z,8.70
2019-02-23T12:06:46.788Z,8.61
2019-02-23T12:07:46.802Z,8.64
2019-02-23T12:08:46.771Z,8.75
2019-02-23T12:09:46.814Z,8.70
2019-02-23T12:10:46.756Z,8.82
2019-02-23T12:11:46.738Z,8.85
2019-02-23T12:12:46.748Z,8.82
2019-02-23T12:13:46.711Z,8.89
2019-02-23T12:14:46.705Z,8.78
2019-02-23T12:15:46.693Z,8.63
2019-02-23T12:16:46.671Z,8.68
2019-02-23T12:17:46.686Z,8.79
2019-02-23T12:18:46.647Z,8.79
2019-02-23T12:19:46.638Z,8.82
2019-02-23T12:20:46.633Z,8.73
2019-02-23T12:21:46.627Z,8.79
2019-02-23T12:22:46.631Z,8.91
2019-02-23T12:23:46.599Z,9.03
2019-02-23T12:24:46.581Z,9.08
2019-02-23T12:25:46.587Z,8.97
2019-02-23T12:26:46.573Z,9.17
2019-02-23T12:27:46.589Z,9.30
2019-02-23T12:28:46.549Z,9.10
2019-02-23T12:29:46.546Z,8.98
2019-02-23T12:30:46.529Z,8.89
2019-02-23T12:32:55.838Z,9.15
2019-02-23T12:33:56.704Z,9.32
2019-02-23T12:34:56.681Z,9.34
2019-02-23T12:35:56.662Z,9.41
2019-02-23T12:36:57.611Z,9.49
2019-02-23T12:37:56.698Z,9.53
2019-02-23T12:38:56.691Z,9.31
2019-02-23T12:39:56.670Z,9.20
2019-02-23T12:40:56.639Z,9.26
2019-02-23T12:41:56.660Z,9.10
2019-02-23T12:42:56.621Z,9.04
2019-02-23T12:43:56.602Z,8.97
2019-02-23T12:44:56.609Z,8.98
2019-02-23T12:45:56.632Z,9.19
2019-02-23T12:46:56.555Z,9.24
2019-02-23T12:47:56.588Z,9.31
2019-02-23T12:48:56.578Z,9.42
2019-02-23T12:49:56.550Z,9.45
2019-02-23T12:50:56.515Z,9.58
2019-02-23T12:51:56.516Z,9.40
2019-02-23T12:52:56.513Z,9.26
2019-02-23T12:53:56.527Z,9.04
2019-02-23T12:54:56.480Z,9.08
2019-02-23T12:55:56.480Z,9.04
2019-02-23T12:56:56.467Z,9.13
2019-02-23T12:57:56.460Z,9.34
2019-02-23T12:58:56.441Z,9.32
2019-02-23T12:59:56.418Z,9.31
2019-02-23T13:00:56.407Z,9.52
2019-02-23T13:01:56.396Z,9.59
2019-02-23T13:02:56.442Z,9.63
2019-02-23T13:03:56.398Z,9.53
2019-02-23T13:04:56.366Z,9.42
2019-02-23T13:05:56.344Z,9.50
2019-02-23T13:06:56.512Z,9.59
2019-02-23T13:07:56.343Z,9.70
2019-02-23T13:08:56.338Z,9.85
2019-02-23T13:09:56.305Z,9.86
2019-02-23T13:10:56.317Z,9.93
2019-02-23T13:11:56.274Z,9.68
2019-02-23T13:12:56.304Z,9.68
2019-02-23T13:13:56.285Z,9.73
2019-02-23T13:14:56.267Z,9.73
2019-02-23T13:15:56.269Z,9.67
2019-02-23T13:16:58.675Z,9.75
2019-02-23T13:17:56.241Z,9.99
2019-02-23T13:18:56.288Z,10.13
2019-02-23T13:19:56.192Z,10.16
2019-02-23T13:20:56.242Z,10.22
2019-02-23T13:21:56.175Z,10.24
2019-02-23T13:22:56.190Z,10.18
2019-02-23T13:23:56.176Z,10.20
2019-02-23T13:24:56.137Z,10.28
2019-02-23T13:25:56.313Z,10.34
2019-02-23T13:26:56.242Z,10.34